Time;durP1;ratioP1;P1;durP2;ratioP2;P2;SDS_P1;SDS_P2;PMS_P1;PMS_P2;Temp;Humidity;BMP_temperature;BMP_pressure;BME280_temperature;BME280_humidity;BME280_pressure;Samples;Min_cycle;Max_cycle;Signal;HPM_P1;HPM_P2
2022/04/10 00:00:09;;;;;;;20.48;13.20;;;-0.10;99.90;;;0.68;100.00;98084.78;5062205;27;118848;-67
2022/04/10 00:02:47;;;;;;;18.15;12.45;;;-0.20;99.90;;;0.60;100.00;98093.41;5062244;27;115787;-67
2022/04/10 00:05:16;;;;;;;19.75;11.52;;;-0.20;99.90;;;0.56;100.00;98087.00;5061935;27;131063;-67
2022/04/10 00:07:44;;;;;;;19.83;12.18;;;-0.30;99.90;;;0.44;100.00;98089.28;5046847;27;129069;-66
2022/04/10 00:10:13;;;;;;;21.40;13.20;;;-0.30;99.90;;;0.40;100.00;98093.56;5063771;27;118707;-67
2022/04/10 00:12:41;;;;;;;23.45;12.65;;;-0.30;99.90;;;0.32;100.00;98084.28;5064320;27;115387;-66
2022/04/10 00:15:11;;;;;;;21.65;12.60;;;-0.30;99.90;;;0.31;100.00;98091.50;5043521;27;129997;-66
2022/04/10 00:17:40;;;;;;;22.65;13.10;;;-0.40;99.90;;;0.30;100.00;98091.78;5063638;27;128955;-68
2022/04/10 00:20:11;;;;;;;19.67;12.38;;;-0.50;99.90;;;0.27;100.00;98087.78;5061791;27;119228;-65
2022/04/10 00:22:44;;;;;;;19.98;12.68;;;-0.60;99.90;;;0.13;100.00;98094.84;5062052;27;116260;-66
2022/04/10 00:25:15;;;;;;;23.27;12.48;;;-0.50;99.90;;;0.06;100.00;98092.47;5061676;27;129844;-66
2022/04/10 00:27:45;;;;;;;20.52;12.75;;;-0.50;99.90;;;-0.02;100.00;98099.19;5061604;27;130691;-67
2022/04/10 00:30:17;;;;;;;19.67;12.65;;;-0.60;99.90;;;-0.11;100.00;98094.69;5060601;27;118745;-66
2022/04/10 00:32:45;;;;;;;21.75;13.98;;;-0.60;99.90;;;-0.17;100.00;98101.13;5063381;27;115743;-65
2022/04/10 00:35:16;;;;;;;23.60;14.82;;;-0.60;99.90;;;-0.11;100.00;98100.84;5061302;27;130606;-65
2022/04/10 00:37:45;;;;;;;21.33;12.55;;;-0.80;99.90;;;-0.14;100.00;98096.06;5045949;27;128572;-64
2022/04/10 00:40:14;;;;;;;25.17;12.93;;;-0.90;99.90;;;-0.21;100.00;98101.69;5061647;27;118825;-65
2022/04/10 00:42:48;;;;;;;23.52;12.90;;;-0.90;99.90;;;-0.26;100.00;98109.72;5060554;27;116327;-65
2022/04/10 00:45:17;;;;;;;31.83;14.38;;;-0.90;99.90;;;-0.28;100.00;98105.72;5061084;27;130028;-66
2022/04/10 00:47:46;;;;;;;22.13;13.27;;;-1.00;99.90;;;-0.31;100.00;98111.59;5061009;27;131315;-67
2022/04/10 00:50:19;;;;;;;22.95;13.27;;;-1.10;99.90;;;-0.39;100.00;98116.44;5060291;27;118887;-67
2022/04/10 00:52:50;;;;;;;23.05;14.15;;;-1.10;99.90;;;-0.41;100.00;98123.91;5060326;27;116587;-67
2022/04/10 00:55:19;;;;;;;22.88;12.85;;;-1.20;99.90;;;-0.42;100.00;98122.31;5062647;27;129673;-67
2022/04/10 00:57:49;;;;;;;24.23;13.20;;;-1.20;99.90;;;-0.45;100.00;98128.19;5062595;27;129915;-68
2022/04/10 01:00:19;;;;;;;25.83;14.25;;;-1.30;99.90;;;-0.48;100.00;98126.06;5061370;27;119369;-67
2022/04/10 01:02:48;;;;;;;24.20;14.55;;;-1.30;99.90;;;-0.51;100.00;98139.13;5077297;27;115994;-66
2022/04/10 01:05:18;;;;;;;22.25;13.55;;;-1.30;99.90;;;-0.50;100.00;98135.41;5045288;27;129063;-66
2022/04/10 01:07:46;;;;;;;23.42;13.45;;;-1.40;99.90;;;-0.51;100.00;98139.94;5062892;27;129318;-65
2022/04/10 01:10:15;;;;;;;24.75;13.98;;;-1.40;99.90;;;-0.52;100.00;98151.66;5062891;27;118212;-67
2022/04/10 01:12:44;;;;;;;23.02;13.95;;;-1.40;99.90;;;-0.51;100.00;98145.28;5076825;27;117143;-67
2022/04/10 01:15:19;;;;;;;26.08;13.48;;;-1.40;99.90;;;-0.55;100.00;98137.03;5079929;27;131398;-67
2022/04/10 01:17:51;;;;;;;24.80;15.13;;;-1.40;99.90;;;-0.60;100.00;98130.91;5076584;27;129667;-67
2022/04/10 01:20:22;;;;;;;24.95;15.27;;;-1.20;99.90;;;-0.64;100.00;98133.34;5062197;27;118351;-67
2022/04/10 01:22:59;;;;;;;29.60;15.80;;;-1.10;99.90;;;-0.61;100.00;98132.78;5080196;27;102794;-68
2022/04/10 01:25:29;;;;;;;30.52;17.00;;;-1.00;99.90;;;-0.60;100.00;98136.25;5076555;27;129973;-67
2022/04/10 01:27:59;;;;;;;26.40;16.27;;;-1.00;99.90;;;-0.57;100.00;98135.69;5059246;27;129369;-67
2022/04/10 01:30:30;;;;;;;26.30;16.08;;;-1.10;99.90;;;-0.57;100.00;98125.03;5076752;27;118743;-69
2022/04/10 01:32:58;;;;;;;27.27;15.95;;;-1.20;99.90;;;-0.61;100.00;98131.97;5077012;27;115936;-67
2022/04/10 01:35:28;;;;;;;28.65;14.30;;;-1.30;99.90;;;-0.67;100.00;98130.41;5062241;27;129072;-69
2022/04/10 01:38:00;;;;;;;23.83;15.23;;;-1.40;99.90;;;-0.86;100.00;98125.63;5060434;27;130071;-68
2022/04/10 01:40:34;;;;;;;24.90;14.43;;;-1.30;99.90;;;-0.83;100.00;98127.75;5059316;27;119702;-69
2022/04/10 01:43:04;;;;;;;25.85;15.73;;;-1.40;99.90;;;-0.81;100.00;98130.97;5063013;27;115944;-69
2022/04/10 01:45:33;;;;;;;28.42;15.70;;;-1.50;99.90;;;-0.84;100.00;98136.84;5062175;27;129362;-69
2022/04/10 01:48:01;;;;;;;27.40;14.48;;;-1.60;99.90;;;-0.85;100.00;98148.56;5076341;27;130248;-68
2022/04/10 01:50:30;;;;;;;23.52;14.60;;;-1.60;99.90;;;-0.91;100.00;98142.44;5060661;27;118817;-70
2022/04/10 01:53:03;;;;;;;28.38;14.48;;;-1.60;99.90;;;-0.89;100.00;98150.16;5059525;27;116003;-70
2022/04/10 01:55:32;;;;;;;24.42;14.43;;;-1.60;99.90;;;-0.92;100.00;98145.38;5060283;27;129816;-70
2022/04/10 01:58:01;;;;;;;22.92;13.52;;;-1.70;99.90;;;-0.93;100.00;98144.56;5043432;27;128846;-69
2022/04/10 02:00:30;;;;;;;24.35;13.45;;;-1.70;99.90;;;-0.95;100.00;98162.69;5042255;27;119428;-69
2022/04/10 02:02:59;;;;;;;26.30;14.52;;;-1.80;99.90;;;-0.95;100.00;98153.88;5025631;27;115164;-71
2022/04/10 02:05:27;;;;;;;23.45;14.00;;;-1.70;99.90;;;-0.93;100.00;98154.44;5042023;27;130053;-70
2022/04/10 02:07:56;;;;;;;27.73;13.57;;;-1.60;99.90;;;-0.87;100.00;98164.03;5040920;27;129805;-69
2022/04/10 02:10:26;;;;;;;22.65;13.18;;;-1.20;99.90;;;-0.80;100.00;98161.06;5025177;27;117674;-69
2022/04/10 02:12:57;;;;;;;22.15;12.80;;;-1.00;99.90;;;-0.73;100.00;98165.06;5055707;27;115941;-69
2022/04/10 02:15:27;;;;;;;20.25;12.90;;;-1.00;99.90;;;-0.69;100.00;98153.84;5055397;27;130045;-68
2022/04/10 02:17:56;;;;;;;24.38;14.23;;;-1.20;99.90;;;-0.77;100.00;98141.88;5038024;27;129737;-68
2022/04/10 02:20:24;;;;;;;27.75;15.45;;;-1.30;99.90;;;-0.86;100.00;98146.94;5055958;27;118879;-69
2022/04/10 02:22:55;;;;;;;23.27;14.57;;;-1.30;99.90;;;-0.85;100.00;98151.22;5038869;27;115933;-70
2022/04/10 02:25:24;;;;;;;26.17;14.98;;;-1.40;99.90;;;-0.86;100.00;98146.94;5044196;27;130295;-69
2022/04/10 02:27:54;;;;;;;24.80;12.75;;;-1.40;99.90;;;-0.87;100.00;98149.88;5028038;27;129697;-69
2022/04/10 02:30:23;;;;;;;20.45;13.30;;;-1.40;99.90;;;-0.86;100.00;98149.63;5028559;27;117637;-70
2022/04/10 02:32:53;;;;;;;23.25;13.25;;;-1.40;99.90;;;-0.88;100.00;98151.75;5042196;27;116145;-69
2022/04/10 02:35:21;;;;;;;29.40;13.52;;;-1.50;99.90;;;-0.94;100.00;98158.94;5044584;27;129282;-68
2022/04/10 02:37:50;;;;;;;23.77;13.95;;;-1.60;99.90;;;-0.98;100.00;98157.09;5044656;27;128973;-69
2022/04/10 02:40:19;;;;;;;24.67;13.88;;;-1.60;99.90;;;-1.07;100.00;98159.50;5041830;27;118986;-70
2022/04/10 02:42:48;;;;;;;22.27;12.93;;;-1.70;99.90;;;-1.12;100.00;98152.31;5041985;27;116032;-70
2022/04/10 02:45:18;;;;;;;24.70;13.00;;;-1.70;99.90;;;-1.13;100.00;98155.25;5044476;27;129572;-69
2022/04/10 02:47:49;;;;;;;24.20;12.20;;;-1.70;99.90;;;-1.13;100.00;98160.59;5042681;27;129463;-68
2022/04/10 02:50:18;;;;;;;24.85;15.35;;;-1.80;99.90;;;-1.16;100.00;98161.13;5043262;27;118916;-71
2022/04/10 02:52:48;;;;;;;29.02;16.50;;;-1.60;99.90;;;-1.13;100.00;98156.03;5058966;27;116443;-68
2022/04/10 02:55:19;;;;;;;26.35;13.93;;;-1.60;99.90;;;-1.19;100.00;98165.09;5027220;27;129639;-69
2022/04/10 02:58:06;;;;;;;;;;;-1.60;99.90;;;-1.38;100.00;98164.06;5031327;27;130097;-71
2022/04/10 03:00:54;;;;;;;29.95;15.63;;;-1.60;99.90;;;-1.30;100.00;98176.81;5045606;27;120290;-70
2022/04/10 03:03:42;;;;;;;25.48;14.45;;;-1.50;99.90;;;-1.26;100.00;98172.56;5045445;27;116500;-70
2022/04/10 03:06:30;;;;;;;29.08;16.70;;;-1.60;99.90;;;-1.27;100.00;98178.94;5030739;27;131531;-69
2022/04/10 03:09:17;;;;;;;;;;;-1.60;99.90;;;-1.32;100.00;98181.63;5059606;27;130195;-70
2022/04/10 03:12:06;;;;;;;23.53;14.47;;;-1.80;99.90;;;-1.28;100.00;98180.00;5045709;27;119766;-69
2022/04/10 03:14:55;;;;;;;32.38;15.35;;;-1.90;99.90;;;-1.37;100.00;98179.75;5059579;27;116500;-70
2022/04/10 03:17:44;;;;;;;25.92;14.82;;;-1.80;99.90;;;-1.37;100.00;98186.91;5044392;27;130674;-69
2022/04/10 03:20:31;;;;;;;32.55;18.27;;;-1.80;99.90;;;-1.33;100.00;98198.66;5044046;27;130444;-71
2022/04/10 03:23:20;;;;;;;29.65;15.10;;;-1.80;99.90;;;-1.25;100.00;98205.31;5059481;27;119499;-71
2022/04/10 03:26:07;;;;;;;26.58;15.25;;;-1.80;99.90;;;-1.29;100.00;98207.72;5042768;27;116542;-71
2022/04/10 03:28:55;;;;;;;23.95;14.18;;;-1.70;99.90;;;-1.21;100.00;98207.19;5044611;27;130779;-69
2022/04/10 03:31:43;;;;;;;23.70;14.13;;;-1.80;99.90;;;-1.20;100.00;98197.31;5058722;27;130713;-70
2022/04/10 03:34:32;;;;;;;19.10;11.55;;;-1.70;99.90;;;-1.01;100.00;98189.59;5044738;27;119510;-69
2022/04/10 03:37:20;;;;;;;20.88;12.45;;;-1.60;99.90;;;-0.84;100.00;98195.44;5044691;27;116419;-70
2022/04/10 03:40:10;;;;;;;21.27;10.85;;;-1.50;99.90;;;-0.64;100.00;98209.78;5058812;27;131232;-69
2022/04/10 03:42:57;;;;;;;21.35;11.43;;;-1.30;99.90;;;-0.43;100.00;98190.03;5044218;27;130189;-69
2022/04/10 03:45:44;;;;;;;;;;;-1.20;99.90;;;-0.33;100.00;98205.19;5041774;27;120473;-71
2022/04/10 03:48:31;;;;;;;19.65;9.93;;;-1.10;99.90;;;-0.02;100.00;98205.91;5045201;27;115576;-71
2022/04/10 03:51:21;;;;;;;19.50;12.07;;;-0.90;99.90;;;0.22;100.00;98201.75;5041923;27;130664;-68
2022/04/10 03:54:08;;;;;;;20.88;13.95;;;-0.80;99.90;;;0.33;100.00;98211.31;5044200;27;130331;-69
2022/04/10 03:56:56;;;;;;;17.38;9.23;;;-0.70;99.90;;;0.51;100.00;98217.88;5043824;27;119809;-69
2022/04/10 03:59:44;;;;;;;15.02;7.07;;;-0.60;99.90;;;0.66;100.00;98214.31;5042600;27;115645;-69
2022/04/10 04:02:32;;;;;;;12.68;6.95;;;-0.50;99.90;;;0.80;100.00;98219.84;5043740;27;130275;-70
2022/04/10 04:05:19;;;;;;;13.95;7.35;;;-0.40;99.90;;;0.90;100.00;98230.44;5042049;27;130672;-69
2022/04/10 04:08:08;;;;;;;12.48;6.53;;;-0.40;99.90;;;1.03;100.00;98237.81;5044614;27;119731;-69
2022/04/10 04:10:56;;;;;;;13.38;6.85;;;-0.30;99.90;;;1.13;99.95;98236.94;5042368;27;116171;-69
2022/04/10 04:13:43;;;;;;;11.82;6.97;;;-0.20;99.90;;;1.31;99.65;98235.44;5058503;27;130909;-69
2022/04/10 04:16:30;;;;;;;11.40;7.10;;;-0.10;99.90;;;1.50;98.89;98234.75;5044050;27;130444;-69
2022/04/10 04:19:18;;;;;;;12.85;7.07;;;0.10;99.90;;;1.65;98.17;98247.16;5043857;27;118336;-69
2022/04/10 04:22:06;;;;;;;13.27;7.28;;;0.10;99.90;;;1.79;97.51;98248.06;5058339;27;115933;-69
2022/04/10 04:24:58;;;;;;;14.70;8.90;;;0.30;99.90;;;1.90;96.15;98262.94;5043777;27;130479;-68
2022/04/10 04:27:46;;;;;;;18.48;9.45;;;0.40;99.90;;;2.01;95.50;98263.63;5057588;27;130233;-69
2022/04/10 04:30:32;;;;;;;;;;;0.60;99.90;;;2.10;94.60;98264.59;5058819;27;119669;-69
2022/04/10 04:33:24;;;;;;;28.88;15.70;;;0.70;99.90;;;2.40;94.14;98272.50;5058559;27;117127;-69
2022/04/10 04:36:13;;;;;;;19.92;11.88;;;0.90;99.90;;;2.77;92.37;98282.47;5057622;27;131092;-68
2022/04/10 04:39:01;;;;;;;18.52;8.73;;;1.10;99.90;;;3.65;90.05;98286.47;5043275;27;130584;-67
2022/04/10 04:41:51;;;;;;;20.23;12.50;;;1.60;99.90;;;3.66;87.72;98285.38;5044006;27;119285;-68
2022/04/10 04:44:38;;;;;;;16.20;9.52;;;1.70;99.90;;;3.55;89.32;98288.25;5043817;27;117216;-68
2022/04/10 04:47:25;;;;;;;14.85;7.75;;;1.60;99.90;;;3.58;89.24;98292.22;5042385;27;130923;-68
2022/04/10 04:50:13;;;;;;;12.00;7.65;;;1.50;99.90;;;3.67;86.60;98297.72;5043674;27;130200;-69
2022/04/10 04:53:02;;;;;;;13.20;6.10;;;1.60;99.90;;;3.60;85.50;98296.19;5043334;27;119570;-69
2022/04/10 04:55:50;;;;;;;10.55;6.25;;;1.70;99.90;;;3.80;86.00;98304.97;5058503;27;115983;-68
2022/04/10 04:58:40;;;;;;;12.65;6.43;;;1.90;99.90;;;3.83;83.82;98314.31;5043106;27;130679;-69
2022/04/10 05:01:29;;;;;;;9.65;6.32;;;2.10;99.90;;;3.96;84.48;98317.03;5057535;27;130849;-67
2022/04/10 05:04:16;;;;;;;10.30;6.50;;;2.30;93.60;;;4.13;84.67;98308.41;5043719;27;119769;-69
2022/04/10 05:07:03;;;;;;;;;;;2.40;70.70;;;4.12;81.83;98312.16;5043976;27;115728;-70
2022/04/10 05:09:51;;;;;;;13.53;8.00;;;2.50;29.80;;;4.41;81.81;98318.34;5043282;27;130909;-69
2022/04/10 05:12:38;;;;;;;11.90;6.88;;;2.70;10.20;;;4.58;79.32;98318.53;5043013;27;130288;-71
2022/04/10 05:15:31;;;;;;;12.65;8.05;;;2.80;1.00;;;4.62;79.57;98332.16;5043469;27;119938;-71
2022/04/10 05:18:19;;;;;;;10.60;6.30;;;2.90;1.00;;;4.67;77.95;98332.88;5043344;27;116227;-70
2022/04/10 05:21:09;;;;;;;10.88;6.78;;;3.10;1.00;;;4.95;78.60;98332.78;5056952;27;130863;-69
2022/04/10 05:23:56;;;;;;;;;;;3.30;1.00;;;5.05;77.73;98339.84;5043433;27;130136;-68
2022/04/10 05:26:44;;;;;;;14.15;6.80;;;3.40;1.00;;;5.26;77.09;98332.09;5043152;27;119403;-70
2022/04/10 05:29:34;;;;;;;13.52;5.65;;;3.50;1.00;;;5.39;74.97;98336.66;5057794;27;116568;-70
2022/04/10 05:32:22;;;;;;;;;;;3.70;1.00;;;5.11;74.69;98341.34;5041336;27;131062;-71
2022/04/10 05:35:09;;;;;;;11.80;5.68;;;3.70;1.00;;;5.43;73.10;98336.03;5043115;27;130463;-70
2022/04/10 05:37:56;;;;;;;9.73;5.07;;;3.80;1.00;;;5.51;71.93;98336.06;5057598;27;119891;-69
2022/04/10 05:40:44;;;;;;;10.20;5.72;;;3.90;1.00;;;5.52;70.01;98334.19;5053703;27;115576;-65
2022/04/10 05:43:31;;;;;;;8.02;4.93;;;3.90;1.00;;;5.31;69.67;98341.94;5061466;27;130713;-66
2022/04/10 05:46:19;;;;;;;16.35;9.98;;;4.00;1.00;;;5.45;70.95;98333.81;5062105;27;130178;-66
2022/04/10 05:49:15;;;;;;;10.40;5.30;;;4.10;1.00;;;5.66;69.68;98340.31;5058943;27;119735;-67
2022/04/10 05:52:04;;;;;;;9.77;4.80;;;4.20;1.00;;;5.56;68.37;98345.94;5063015;27;116382;-66
2022/04/10 05:54:51;;;;;;;14.20;5.38;;;4.20;1.00;;;5.47;68.64;98339.69;5062136;27;130562;-67
2022/04/10 05:57:38;;;;;;;;;;;4.20;1.00;;;5.37;68.26;98354.97;5061621;27;130699;-69
2022/04/10 06:00:26;;;;;;;9.65;5.85;;;4.10;1.00;;;5.31;68.65;98356.19;5064041;27;119696;-67
2022/04/10 06:03:27;;;;;;;9.38;4.85;;;4.20;1.00;;;5.26;68.90;98348.25;5065797;27;115907;-66
2022/04/10 06:06:18;;;;;;;9.73;4.88;;;4.10;1.00;;;5.39;68.87;98351.97;5065637;27;131026;-65
2022/04/10 06:09:10;;;;;;;8.95;5.30;;;4.20;1.00;;;5.36;69.04;98363.34;5064787;27;130932;-65
2022/04/10 06:11:57;;;;;;;9.43;5.15;;;4.10;1.00;;;5.60;69.18;98363.06;5066098;27;119549;-67
2022/04/10 06:14:47;;;;;;;7.88;4.80;;;4.30;1.00;;;5.64;68.73;98369.44;5066113;27;115831;-67
2022/04/10 06:17:16;;;;;;;8.88;4.85;;;4.40;1.00;;;5.71;68.21;98374.38;5047028;27;128907;-68
2022/04/10 06:19:47;;;;;;;9.65;4.88;;;4.40;1.00;;;5.87;67.44;98378.28;5060897;27;130092;-65
2022/04/10 06:22:19;;;;;;;10.77;5.28;;;4.50;1.00;;;6.20;67.52;98374.53;5064412;27;119544;-66
2022/04/10 06:24:48;;;;;;;8.25;5.45;;;4.70;1.00;;;6.44;66.24;98380.34;5061971;27;116299;-67
2022/04/10 06:27:17;;;;;;;10.90;5.60;;;4.80;1.00;;;6.63;65.05;98371.22;5064194;27;129822;-68
2022/04/10 06:29:45;;;;;;;9.18;5.45;;;4.90;1.00;;;6.65;64.45;98382.47;5060420;27;129549;-67
2022/04/10 06:32:14;;;;;;;11.02;6.38;;;4.90;1.00;;;6.57;64.43;98394.03;5065209;27;117827;-67
2022/04/10 06:34:45;;;;;;;15.40;10.55;;;5.00;1.00;;;6.64;64.50;98400.56;5047731;27;115597;-67
2022/04/10 06:37:15;;;;;;;9.00;6.05;;;5.10;1.00;;;6.92;65.34;98383.31;5080766;27;129588;-65
2022/04/10 06:39:45;;;;;;;12.75;8.15;;;5.30;1.00;;;7.20;63.84;98395.44;5063664;27;129338;-65
2022/04/10 06:42:14;;;;;;;7.95;4.68;;;5.40;1.00;;;7.19;62.23;98401.94;5058986;27;119321;-67
2022/04/10 06:45:05;;;;;;;11.27;5.00;;;5.40;1.00;;;7.07;62.54;98407.16;5064653;27;114615;-67
2022/04/10 06:47:52;;;;;;;11.02;5.47;;;5.20;1.00;;;7.44;63.72;98406.91;5063435;27;129336;-66
2022/04/10 06:50:20;;;;;;;10.35;5.13;;;5.60;1.00;;;7.25;61.74;98412.59;5064181;27;129542;-67
2022/04/10 06:52:50;;;;;;;10.02;5.40;;;5.50;1.00;;;7.30;61.69;98420.53;5064110;27;119116;-67
2022/04/10 06:55:21;;;;;;;8.98;4.78;;;5.60;1.00;;;7.06;62.43;98416.38;5065108;27;114872;-68
2022/04/10 06:57:50;;;;;;;12.50;5.75;;;5.40;1.00;;;6.74;65.23;98415.66;5081721;27;130049;-67
2022/04/10 07:00:19;;;;;;;12.18;5.65;;;5.50;1.00;;;7.28;63.74;98418.16;5060526;27;130090;-66
2022/04/10 07:02:50;;;;;;;10.48;5.38;;;5.60;1.00;;;7.71;62.42;98420.09;5047084;27;119117;-67
2022/04/10 07:05:20;;;;;;;9.18;5.43;;;5.90;1.00;;;8.27;61.62;98430.97;5059688;27;115545;-67
2022/04/10 07:07:55;;;;;;;12.48;8.50;;;6.30;1.00;;;8.42;61.90;98424.22;5062815;27;129846;-65
2022/04/10 07:10:25;;;;;;;11.07;6.05;;;6.50;1.00;;;8.78;60.20;98422.22;5063358;27;128896;-65
2022/04/10 07:12:54;;;;;;;10.00;4.90;;;6.60;1.00;;;8.67;57.93;98439.94;5077125;27;119205;-66
2022/04/10 07:15:23;;;;;;;17.90;14.63;;;6.30;1.00;;;8.92;59.57;98436.31;5060721;27;116883;-67
2022/04/10 07:17:52;;;;;;;11.15;6.35;;;6.70;1.00;;;9.27;59.23;98433.41;5039498;27;130861;-66
2022/04/10 07:20:21;;;;;;;8.75;5.60;;;7.00;1.00;;;9.66;57.76;98439.50;5039871;27;130203;-64
2022/04/10 07:25:37;;;;;;;11.40;5.20;;;7.80;1.00;;;10.84;55.40;98438.47;5040382;27;115469;-66
2022/04/10 07:28:07;;;;;;;9.90;5.72;;;8.20;1.00;;;10.42;53.13;98440.25;5042478;27;128935;-67
2022/04/10 07:30:45;;;;;;;10.13;4.78;;;7.60;1.00;;;9.50;55.42;98438.50;5040458;27;129570;-67
2022/04/10 07:33:18;;;;;;;12.43;5.15;;;6.80;1.00;;;9.28;57.10;98442.31;5064779;27;118412;-67
2022/04/10 07:35:54;;;;;;;;;;;6.70;1.00;;;8.70;58.23;98431.97;5062236;27;115292;-68
2022/04/10 07:38:28;;;;;;;9.00;5.00;;;6.70;1.00;;;8.46;58.90;98443.31;5080754;27;131616;-65
2022/04/10 07:41:01;;;;;;;9.05;5.22;;;6.40;1.00;;;8.33;59.81;98439.69;5060755;27;129498;-67
2022/04/10 07:43:39;;;;;;;9.60;4.75;;;6.30;1.00;;;8.13;60.16;98446.56;5061358;27;119441;-68
2022/04/10 07:48:58;;;;;;;9.43;4.88;;;6.40;1.00;;;8.31;60.73;98457.34;5046714;27;129025;-67
2022/04/10 07:51:32;;;;;;;12.55;6.13;;;6.50;1.00;;;8.57;61.04;98458.09;5064028;27;129687;-67
2022/04/10 07:54:18;;;;;;;9.53;4.23;;;6.70;1.00;;;9.02;58.38;98458.69;5078328;27;119104;-66
2022/04/10 07:56:48;;;;;;;10.02;5.40;;;6.90;1.00;;;9.12;59.78;98447.50;5060858;27;114960;-68
2022/04/10 07:59:23;;;;;;;9.85;5.80;;;7.10;1.00;;;9.40;59.80;98455.16;5046803;27;128891;-66
2022/04/10 08:01:52;;;;;;;10.13;5.20;;;7.40;1.00;;;9.39;57.03;98456.28;5063775;27;128989;-70
2022/04/10 08:04:25;;;;;;;8.27;4.93;;;7.30;1.00;;;9.35;57.16;98446.09;5060334;27;119053;-67
2022/04/10 08:07:09;;;;;;;7.30;3.95;;;7.40;1.00;;;9.14;56.56;98466.91;5064753;27;115983;-70
2022/04/10 08:09:38;;;;;;;7.25;4.43;;;7.20;1.00;;;9.19;56.38;98461.31;5061777;27;129900;-67
2022/04/10 08:12:09;;;;;;;7.68;4.43;;;7.20;1.00;;;9.27;58.95;98455.06;5061668;27;130192;-66
2022/04/10 08:14:37;;;;;;;9.73;4.30;;;7.40;1.00;;;9.54;56.56;98447.56;5062129;27;118935;-66
2022/04/10 08:17:09;;;;;;;10.32;4.60;;;7.50;1.00;;;9.43;57.42;98452.56;5063319;27;115280;-65
2022/04/10 08:19:37;;;;;;;9.10;4.40;;;7.60;1.00;;;9.64;56.20;98460.69;5062643;27;128690;-65
2022/04/10 08:22:06;;;;;;;7.85;4.40;;;7.70;1.00;;;9.52;56.36;98457.91;5063452;27;129947;-67
2022/04/10 08:24:34;;;;;;;10.02;5.07;;;7.40;1.00;;;9.65;56.97;98464.22;5062219;27;119308;-67
2022/04/10 08:27:03;;;;;;;9.27;5.22;;;7.70;1.00;;;9.83;56.93;98459.44;5047094;27;114641;-67
2022/04/10 08:29:33;;;;;;;9.90;5.55;;;7.80;1.00;;;9.94;55.75;98459.81;5061597;27;130283;-65
2022/04/10 08:32:02;;;;;;;8.05;3.85;;;8.00;1.00;;;9.82;54.43;98458.66;5061537;27;130776;-71
2022/04/10 08:34:31;;;;;;;7.28;4.07;;;7.70;1.00;;;10.01;55.72;98463.59;5062059;27;118709;-68
2022/04/10 08:37:04;;;;;;;8.50;4.10;;;7.90;1.00;;;9.82;54.82;98458.66;5062112;27;114782;-69
2022/04/10 08:39:33;;;;;;;8.10;4.65;;;7.70;1.00;;;10.15;55.65;98459.81;5061220;27;130913;-67
2022/04/10 08:42:05;;;;;;;7.50;4.82;;;8.00;1.00;;;10.16;55.95;98464.09;5061621;27;129718;-67
2022/04/10 08:44:35;;;;;;;7.03;3.90;;;8.30;1.00;;;9.84;54.35;98466.44;5061960;27;119290;-69
2022/04/10 08:47:05;;;;;;;6.60;3.95;;;8.00;1.00;;;9.60;54.40;98454.38;5062584;27;115302;-66
2022/04/10 08:49:35;;;;;;;8.57;4.07;;;7.80;1.00;;;9.96;55.26;98461.09;5061160;27;130215;-71
2022/04/10 08:52:04;;;;;;;8.55;4.28;;;8.10;1.00;;;10.06;53.87;98460.66;5061577;27;129608;-67
2022/04/10 08:54:36;;;;;;;8.65;4.05;;;8.10;1.00;;;10.14;55.73;98469.06;5061687;27;119355;-68
2022/04/10 08:57:06;;;;;;;8.43;4.30;;;8.30;1.00;;;10.25;53.66;98470.22;5061870;27;115797;-65
2022/04/10 08:59:36;;;;;;;9.43;4.75;;;8.30;1.00;;;10.55;55.22;98467.38;5061354;27;129914;-67
2022/04/10 09:02:06;;;;;;;8.57;3.75;;;8.40;1.00;;;10.74;54.12;98475.78;5059934;27;129676;-65
2022/04/10 09:04:34;;;;;;;7.50;3.78;;;8.60;1.00;;;11.00;52.67;98482.03;5061705;27;118688;-68
2022/04/10 09:07:07;;;;;;;10.35;3.78;;;9.00;1.00;;;10.59;50.80;98484.56;5061458;27;115164;-68
2022/04/10 09:09:36;;;;;;;5.32;3.58;;;8.50;1.00;;;10.33;52.69;98480.22;5061275;27;130221;-66
2022/04/10 09:12:06;;;;;;;6.85;4.00;;;8.50;1.00;;;10.60;52.64;98480.75;5061300;27;129747;-68
2022/04/10 09:14:42;;;;;;;7.03;3.60;;;8.50;1.00;;;10.65;51.52;98487.88;5063229;27;117897;-67
2022/04/10 09:17:13;;;;;;;6.75;3.70;;;8.60;1.00;;;11.27;52.10;98480.56;5061642;27;115565;-64
2022/04/10 09:19:44;;;;;;;6.20;3.67;;;9.10;1.00;;;11.86;50.95;98493.59;5060833;27;129936;-64
2022/04/10 09:22:30;;;;;;;7.75;3.53;;;9.60;1.00;;;12.28;49.52;98480.75;5062647;27;128525;-67
2022/04/10 09:25:08;;;;;;;6.43;3.90;;;10.00;1.00;;;12.79;47.34;98472.75;5061406;27;118924;-67
2022/04/10 09:27:39;;;;;;;7.82;3.50;;;10.30;1.00;;;13.19;45.44;98477.22;5061436;27;115171;-68
2022/04/10 09:30:12;;;;;;;5.78;3.38;;;10.60;1.00;;;13.54;47.07;98483.84;5060315;27;130610;-66
2022/04/10 09:32:43;;;;;;;7.43;3.17;;;10.80;1.00;;;14.21;44.40;98491.88;5060715;27;129764;-68
2022/04/10 09:35:14;;;;;;;7.57;3.47;;;11.30;1.00;;;14.79;42.76;98482.81;5061169;27;119266;-68
2022/04/10 09:37:49;;;;;;;7.85;3.50;;;11.70;1.00;;;15.06;41.80;98485.59;5061523;27;115725;-66
2022/04/10 09:40:29;;;;;;;6.50;3.45;;;11.80;1.00;;;14.65;44.06;98483.34;5059170;27;130259;-67
2022/04/10 09:43:00;;;;;;;5.63;3.55;;;11.40;1.00;;;14.37;41.67;98489.84;5060874;27;129401;-70
2022/04/10 09:45:33;;;;;;;7.07;3.20;;;11.00;1.00;;;13.63;41.91;98487.97;5060782;27;119300;-65
2022/04/10 09:48:21;;;;;;;6.00;3.40;;;10.40;1.00;;;12.67;44.80;98489.97;5059974;27;115791;-70
2022/04/10 09:50:52;;;;;;;7.25;3.40;;;9.80;1.00;;;12.46;45.19;98495.63;5062503;27;128890;-71
2022/04/10 09:53:21;;;;;;;5.72;3.35;;;9.60;1.00;;;12.00;46.41;98489.72;5076358;27;130095;-69
2022/04/10 09:55:55;;;;;;;7.45;3.30;;;9.00;1.00;;;11.48;46.88;98497.53;5061306;27;118689;-73
2022/04/10 09:58:25;;;;;;;8.63;3.65;;;9.20;1.00;;;11.57;48.29;98491.94;5061323;27;114840;-68
2022/04/10 10:00:56;;;;;;;5.15;3.20;;;9.00;1.00;;;11.48;46.97;98507.56;5063533;27;129830;-68
2022/04/10 10:03:26;;;;;;;10.40;3.72;;;9.20;1.00;;;11.02;47.40;98507.72;5076678;27;129476;-68
2022/04/10 10:05:56;;;;;;;9.05;4.85;;;8.90;1.00;;;11.10;47.88;98520.38;5060875;27;118531;-70
2022/04/10 10:08:27;;;;;;;6.35;3.85;;;8.80;1.00;;;10.51;48.20;98510.66;5061015;27;115200;-71
2022/04/10 10:10:57;;;;;;;7.18;3.38;;;8.50;1.00;;;10.87;48.30;98514.59;5059870;27;129694;-68
2022/04/10 10:13:27;;;;;;;6.78;3.47;;;8.80;1.00;;;10.57;48.10;98508.53;5060851;27;130337;-70
2022/04/10 10:15:57;;;;;;;8.88;3.60;;;8.60;1.00;;;10.60;48.55;98510.59;5076774;27;118960;-70
2022/04/10 10:18:27;;;;;;;7.43;3.10;;;8.70;1.00;;;11.03;47.05;98514.75;5061378;27;115325;-68
2022/04/10 10:20:55;;;;;;;7.90;3.20;;;8.80;1.00;;;11.11;45.69;98521.16;5061812;27;128894;-68
2022/04/10 10:23:26;;;;;;;5.75;3.05;;;9.00;1.00;;;11.22;45.34;98521.50;5060415;27;130281;-68
2022/04/10 10:26:11;;;;;;;5.05;2.75;;;9.10;1.00;;;11.47;44.56;98517.66;5058438;27;119163;-68
2022/04/10 10:29:32;;;;;;;5.13;2.65;;;9.40;1.00;;;11.73;41.70;98518.41;5059513;27;115471;-69
2022/04/10 10:32:14;;;;;;;6.38;2.70;;;9.60;1.00;;;12.73;40.78;98514.97;5013370;27;130418;-68
2022/04/10 10:34:43;;;;;;;5.93;2.40;;;10.10;1.00;;;13.17;39.39;98505.97;5063170;27;129411;-67
2022/04/10 10:37:15;;;;;;;5.45;2.72;;;10.10;1.00;;;13.62;39.14;98521.81;5060042;27;119415;-70
2022/04/10 10:39:47;;;;;;;4.32;2.55;;;10.70;1.00;;;13.70;38.65;98506.41;5062601;27;114637;-67
2022/04/10 10:42:15;;;;;;;5.57;2.72;;;10.80;1.00;;;13.80;38.60;98508.56;5059874;27;130209;-71
2022/04/10 10:44:53;;;;;;;7.30;2.88;;;10.40;1.00;;;13.65;39.50;98504.75;5060113;27;129797;-67
2022/04/10 10:47:26;;;;;;;5.25;2.45;;;10.70;1.00;;;13.71;37.75;98507.97;5063634;27;119103;-68
2022/04/10 10:49:55;;;;;;;6.00;2.65;;;10.60;1.00;;;13.75;39.39;98497.94;5063933;27;115897;-66
2022/04/10 10:52:25;;;;;;;6.00;2.95;;;10.80;1.00;;;13.89;39.36;98497.47;5065384;27;129081;-70
2022/04/10 10:54:55;;;;;;;4.38;2.40;;;11.10;1.00;;;14.16;38.98;98500.34;5063061;27;130060;-67
2022/04/10 10:57:31;;;;;;;5.07;2.30;;;11.50;1.00;;;14.25;39.02;98500.91;5065337;27;118168;-67